Time;durP1;ratioP1;P1;durP2;ratioP2;P2;SDS_P1;SDS_P2;PMS_P1;PMS_P2;Temp;Humidity;BMP_temperature;BMP_pressure;BME280_temperature;BME280_humidity;BME280_pressure;Samples;Min_cycle;Max_cycle;Signal;HPM_P1;HPM_P2
2021/03/17 17:49:11;;;;;;;12.53;9.27;;;;;;;2.51;100.00;94807.03;5078885;27;99796;-62
2021/03/17 17:51:37;;;;;;;12.20;9.13;;;;;;;2.51;100.00;94812.94;5064808;28;20294;-62
2021/03/17 17:54:06;;;;;;;10.07;7.77;;;;;;;2.54;100.00;94811.66;5070920;28;20233;-61
2021/03/17 17:56:34;;;;;;;8.53;6.97;;;;;;;2.46;100.00;94807.81;5085829;28;20199;-61
2021/03/17 17:59:01;;;;;;;9.03;7.47;;;;;;;2.54;100.00;94817.53;5085098;28;20241;-62
2021/03/17 18:01:27;;;;;;;9.33;7.27;;;;;;;2.47;100.00;94817.06;5085443;28;20196;-62
2021/03/17 18:03:56;;;;;;;8.93;6.93;;;;;;;2.51;100.00;94818.06;5087091;28;20226;-61
2021/03/17 18:06:24;;;;;;;8.93;6.80;;;;;;;2.56;100.00;94820.63;5086869;28;20210;-61
2021/03/17 18:08:51;;;;;;;9.30;7.40;;;;;;;2.49;100.00;94825.25;5081772;28;20317;-61
2021/03/17 18:11:17;;;;;;;10.70;8.10;;;;;;;2.56;100.00;94825.75;5066721;28;20215;-61
2021/03/17 18:13:44;;;;;;;10.53;7.27;;;;;;;2.58;100.00;94821.16;5066363;28;20292;-62
2021/03/17 18:16:11;;;;;;;11.27;7.40;;;;;;;2.60;100.00;94824.19;5066384;28;20341;-61
2021/03/17 18:18:39;;;;;;;10.50;7.47;;;;;;;2.51;100.00;94828.31;5066468;28;20197;-62
2021/03/17 18:21:06;;;;;;;10.13;7.10;;;;;;;2.54;100.00;94829.63;5066364;28;20287;-62
2021/03/17 18:23:34;;;;;;;8.17;6.60;;;;;;;2.56;100.00;94836.00;5066283;28;20291;-60
2021/03/17 18:26:00;;;;;;;9.97;7.63;;;;;;;2.53;100.00;94828.84;5066215;28;20340;-61
2021/03/17 18:28:27;;;;;;;9.10;7.60;;;;;;;2.58;100.00;94835.75;5066308;28;20739;-60
2021/03/17 18:30:55;;;;;;;9.87;7.77;;;;;;;2.53;100.00;94841.66;5066178;28;20578;-61
2021/03/17 18:33:23;;;;;;;10.00;7.43;;;;;;;2.54;100.00;94835.50;5065728;28;20198;-62
2021/03/17 18:35:50;;;;;;;10.27;7.70;;;;;;;2.45;100.00;94846.53;5065889;28;20233;-60
2021/03/17 18:38:17;;;;;;;10.83;7.70;;;;;;;2.45;100.00;94842.16;5066015;28;20202;-61
2021/03/17 18:40:45;;;;;;;11.53;8.80;;;;;;;2.53;100.00;94844.22;5065166;28;20194;-60
2021/03/17 18:43:13;;;;;;;9.37;7.73;;;;;;;2.50;100.00;94852.41;5066102;28;20242;-61
2021/03/17 18:45:40;;;;;;;9.47;7.40;;;;;;;2.56;100.00;94850.63;5065923;28;20203;-61
2021/03/17 18:48:08;;;;;;;8.97;7.40;;;;;;;2.56;100.00;94848.06;5065513;28;20277;-62
2021/03/17 18:50:36;;;;;;;9.70;7.50;;;;;;;2.54;100.00;94845.75;5065703;28;20561;-61
2021/03/17 18:53:04;;;;;;;11.77;8.53;;;;;;;2.55;100.00;94844.72;5066008;28;20230;-61
2021/03/17 18:55:34;;;;;;;9.80;7.70;;;;;;;2.56;100.00;94855.75;5065433;28;20195;-60
2021/03/17 18:58:05;;;;;;;10.53;8.23;;;;;;;2.60;100.00;94852.41;5065518;28;20204;-60
2021/03/17 19:00:33;;;;;;;11.53;9.13;;;;;;;2.50;100.00;94860.13;5052011;28;20201;-61
2021/03/17 19:03:00;;;;;;;9.10;7.50;;;;;;;2.55;100.00;94865.25;5052334;28;20206;-62
2021/03/17 19:05:29;;;;;;;10.43;8.67;;;;;;;2.47;100.00;94854.75;5052286;28;20205;-61
2021/03/17 19:07:56;;;;;;;9.47;7.33;;;;;;;2.50;100.00;94861.91;5052394;28;20242;-60
2021/03/17 19:10:24;;;;;;;9.50;8.20;;;;;;;2.46;100.00;94860.88;5052243;28;20226;-60
2021/03/17 19:12:53;;;;;;;10.17;8.07;;;;;;;2.50;100.00;94865.25;5052191;28;20312;-60
2021/03/17 19:15:24;;;;;;;9.57;7.50;;;;;;;2.58;100.00;94869.09;5051948;28;20196;-59
2021/03/17 19:17:53;;;;;;;9.17;7.43;;;;;;;2.48;100.00;94869.88;5052020;28;20234;-61
2021/03/17 19:20:23;;;;;;;9.70;7.80;;;;;;;2.55;100.00;94870.38;5052422;28;20198;-61
2021/03/17 19:22:50;;;;;;;10.23;8.07;;;;;;;2.61;100.00;94873.69;5051856;28;20196;-61
2021/03/17 19:25:19;;;;;;;10.93;8.20;;;;;;;2.69;100.00;94868.03;5051761;28;20233;-61
2021/03/17 19:27:47;;;;;;;9.63;8.17;;;;;;;2.69;100.00;94868.03;5051549;28;20224;-61
2021/03/17 19:30:15;;;;;;;10.70;8.63;;;;;;;2.54;100.00;94873.22;5050595;28;20199;-61
2021/03/17 19:32:42;;;;;;;11.07;8.23;;;;;;;2.60;100.00;94872.16;5051659;28;20278;-61
2021/03/17 19:35:11;;;;;;;9.57;7.47;;;;;;;2.51;100.00;94873.72;5051738;28;20196;-61
2021/03/17 19:37:38;;;;;;;11.30;7.60;;;;;;;2.57;100.00;94876.03;5051617;28;20207;-62
2021/03/17 19:40:07;;;;;;;10.10;7.70;;;;;;;2.55;100.00;94874.72;5051567;28;20260;-61
2021/03/17 19:42:34;;;;;;;10.20;8.00;;;;;;;2.57;100.00;94878.59;5051644;28;20200;-61
2021/03/17 19:45:01;;;;;;;11.20;7.30;;;;;;;2.53;100.00;94872.44;5051346;28;20200;-60
2021/03/17 19:47:28;;;;;;;7.33;6.63;;;;;;;2.54;100.00;94873.94;5050941;28;20231;-61
2021/03/17 19:49:55;;;;;;;9.47;7.30;;;;;;;2.50;100.00;94872.94;5051145;28;20347;-60
2021/03/17 19:52:22;;;;;;;9.17;7.17;;;;;;;2.49;100.00;94879.09;5051215;28;20239;-60
2021/03/17 19:54:49;;;;;;;9.97;7.50;;;;;;;2.47;100.00;94877.81;5051157;28;20203;-61
2021/03/17 19:57:16;;;;;;;10.13;8.17;;;;;;;2.48;100.00;94884.50;5051088;28;20202;-61
2021/03/17 19:59:43;;;;;;;11.20;8.33;;;;;;;2.46;100.00;94882.16;5051364;28;20272;-61
2021/03/17 20:02:11;;;;;;;9.97;7.73;;;;;;;2.52;100.00;94881.16;5051115;28;20230;-61
2021/03/17 20:04:38;;;;;;;10.33;7.80;;;;;;;2.49;100.00;94886.78;5051131;28;20662;-60
2021/03/17 20:07:07;;;;;;;12.60;7.73;;;;;;;2.60;100.00;94892.66;5050893;28;20195;-60
2021/03/17 20:09:34;;;;;;;12.27;8.47;;;;;;;2.54;100.00;94891.91;5050699;28;20255;-61
2021/03/17 20:12:02;;;;;;;11.27;8.17;;;;;;;2.62;100.00;94895.75;5049723;28;20287;-60
2021/03/17 20:14:29;;;;;;;17.83;11.27;;;;;;;2.64;100.00;94892.94;5050724;28;20232;-60
2021/03/17 20:16:56;;;;;;;11.87;8.60;;;;;;;2.55;100.00;94901.13;5050778;28;20226;-61
2021/03/17 20:19:24;;;;;;;11.17;8.53;;;;;;;2.52;100.00;94895.75;5050518;28;20276;-61
2021/03/17 20:21:51;;;;;;;11.10;9.27;;;;;;;2.56;100.00;94904.47;5050736;28;20200;-60
2021/03/17 20:24:21;;;;;;;11.07;8.73;;;;;;;2.58;100.00;94905.78;5050540;28;20657;-59
2021/03/17 20:26:48;;;;;;;11.53;8.37;;;;;;;2.55;100.00;94911.41;5054533;28;20282;-60
2021/03/17 20:29:15;;;;;;;12.10;8.70;;;;;;;2.56;100.00;94912.94;5051407;28;20231;-60
2021/03/17 20:31:43;;;;;;;12.30;9.57;;;;;;;2.47;100.00;94911.91;5050849;28;20192;-61
2021/03/17 20:34:10;;;;;;;12.47;9.67;;;;;;;2.46;100.00;94923.19;5050846;28;21194;-61
2021/03/17 20:36:37;;;;;;;11.57;8.60;;;;;;;2.53;100.00;94917.81;5050851;28;20579;-61
2021/03/17 20:39:05;;;;;;;11.70;9.07;;;;;;;2.52;100.00;94927.31;5050807;28;20235;-60
2021/03/17 20:41:34;;;;;;;11.70;9.17;;;;;;;2.47;100.00;94921.41;5050640;28;20201;-60
2021/03/17 20:44:02;;;;;;;10.00;8.13;;;;;;;2.46;100.00;94927.56;5050384;28;20753;-60
2021/03/17 20:46:30;;;;;;;11.83;8.90;;;;;;;2.42;100.00;94929.88;5050288;28;20229;-60
2021/03/17 20:48:57;;;;;;;11.40;8.80;;;;;;;2.45;100.00;94924.22;5049890;28;20328;-60
2021/03/17 20:51:27;;;;;;;13.33;10.07;;;;;;;2.38;100.00;94931.41;5050017;28;20296;-60
2021/03/17 20:53:54;;;;;;;11.20;9.00;;;;;;;2.42;100.00;94935.00;5050053;28;20260;-59
2021/03/17 20:56:22;;;;;;;15.50;9.90;;;;;;;2.41;100.00;94936.00;5049972;28;20193;-59
2021/03/17 20:58:50;;;;;;;12.40;9.67;;;;;;;2.47;100.00;94944.47;5050134;28;20283;-58
2021/03/17 21:01:17;;;;;;;13.70;10.23;;;;;;;2.31;100.00;94942.91;5050200;28;20236;-59
2021/03/17 21:03:44;;;;;;;12.93;9.87;;;;;;;2.36;100.00;94936.00;5049980;28;20237;-59
2021/03/17 21:06:11;;;;;;;12.97;9.70;;;;;;;2.39;100.00;94942.44;5049858;28;20191;-59
2021/03/17 21:08:39;;;;;;;14.93;10.80;;;;;;;2.36;100.00;94938.56;5049760;28;20358;-60
2021/03/17 21:11:07;;;;;;;15.03;10.57;;;;;;;2.40;100.00;94952.41;5050031;28;20232;-61
2021/03/17 21:13:35;;;;;;;13.03;10.03;;;;;;;2.36;100.00;94938.56;5049687;28;20318;-60
2021/03/17 21:16:03;;;;;;;13.33;10.47;;;;;;;2.37;100.00;94944.47;5049933;28;20561;-60
2021/03/17 21:18:30;;;;;;;13.97;10.43;;;;;;;2.36;100.00;94948.81;5049655;28;20207;-60
2021/03/17 21:20:57;;;;;;;12.73;10.27;;;;;;;2.37;100.00;94940.13;5049652;28;20190;-60
2021/03/17 21:23:26;;;;;;;15.40;10.37;;;;;;;2.35;100.00;94946.50;5049684;28;20228;-60
2021/03/17 21:25:55;;;;;;;12.93;10.33;;;;;;;2.37;100.00;94939.34;5049959;28;20199;-60
2021/03/17 21:28:22;;;;;;;14.03;11.57;;;;;;;2.39;100.00;94948.31;5049515;28;20367;-60
2021/03/17 21:30:49;;;;;;;15.43;11.23;;;;;;;2.41;100.00;94941.13;5050166;28;20289;-60
2021/03/17 21:33:18;;;;;;;16.97;12.10;;;;;;;2.37;100.00;94950.38;5049415;28;20278;-60
2021/03/17 21:35:47;;;;;;;17.80;13.47;;;;;;;2.43;100.00;94946.78;5049962;28;20231;-60
2021/03/17 21:38:14;;;;;;;15.63;11.47;;;;;;;2.37;100.00;94950.38;5049664;28;20285;-60
2021/03/17 21:40:44;;;;;;;16.43;11.93;;;;;;;2.36;100.00;94948.06;5049490;28;20204;-60
2021/03/17 21:43:12;;;;;;;14.23;11.37;;;;;;;2.31;100.00;94945.47;5049379;28;20198;-60
2021/03/17 21:45:40;;;;;;;15.30;12.43;;;;;;;2.34;100.00;94945.72;5049199;28;20690;-60
2021/03/17 21:48:08;;;;;;;16.27;12.07;;;;;;;2.37;100.00;94945.25;5049011;28;20725;-60
2021/03/17 21:50:37;;;;;;;16.43;12.37;;;;;;;2.28;100.00;94951.91;5049323;28;20674;-60
2021/03/17 21:53:03;;;;;;;14.60;11.27;;;;;;;2.34;100.00;94950.84;5049233;28;20286;-60
2021/03/17 21:55:30;;;;;;;15.90;12.37;;;;;;;2.38;100.00;94946.78;5049433;28;20207;-60
2021/03/17 21:57:57;;;;;;;16.20;11.77;;;;;;;2.39;100.00;94948.31;5049450;28;20674;-60
2021/03/17 22:00:25;;;;;;;16.67;12.93;;;;;;;2.27;100.00;94945.22;5049648;28;20207;-61
2021/03/17 22:02:52;;;;;;;18.83;13.07;;;;;;;2.29;100.00;94945.72;5049575;28;20290;-61
2021/03/17 22:05:20;;;;;;;17.63;12.90;;;;;;;2.23;100.00;94954.44;5049437;28;20631;-60
2021/03/17 22:07:47;;;;;;;17.90;12.97;;;;;;;2.26;100.00;94948.03;5049122;28;20655;-60
2021/03/17 22:10:18;;;;;;;19.03;13.43;;;;;;;2.16;100.00;94946.22;5049053;28;20215;-61
2021/03/17 22:12:45;;;;;;;18.97;13.93;;;;;;;2.16;100.00;94953.91;5049161;28;20203;-60
2021/03/17 22:15:14;;;;;;;17.83;13.17;;;;;;;2.21;100.00;94950.59;5049436;28;20629;-60
2021/03/17 22:17:41;;;;;;;18.00;12.87;;;;;;;2.23;100.00;94958.81;5049137;28;20285;-60
2021/03/17 22:20:11;;;;;;;18.47;13.17;;;;;;;2.17;100.00;94961.34;5049221;28;20233;-60
2021/03/17 22:22:38;;;;;;;18.67;13.50;;;;;;;2.12;100.00;94958.00;5049179;28;20200;-60
2021/03/17 22:25:07;;;;;;;19.13;13.53;;;;;;;2.18;100.00;94962.13;5049214;28;20208;-60
2021/03/17 22:27:34;;;;;;;19.53;14.00;;;;;;;2.11;100.00;94956.47;5049191;28;20228;-60
2021/03/17 22:30:01;;;;;;;17.87;13.20;;;;;;;2.13;100.00;94968.00;5049309;28;20202;-60
2021/03/17 22:32:28;;;;;;;19.23;14.20;;;;;;;2.14;100.00;94966.22;5048942;28;20293;-59
2021/03/17 22:34:55;;;;;;;18.40;13.70;;;;;;;2.14;100.00;94966.97;5051034;28;20198;-60
2021/03/17 22:37:22;;;;;;;19.10;13.80;;;;;;;2.19;100.00;94966.25;5052778;28;20297;-58
2021/03/17 22:39:48;;;;;;;19.00;13.23;;;;;;;2.16;100.00;94964.16;5053217;28;20321;-60
2021/03/17 22:42:27;;;;;;;19.20;14.03;;;;;;;2.13;100.00;94970.56;5053078;28;20238;-59
2021/03/17 22:44:56;;;;;;;18.10;13.97;;;;;;;2.14;100.00;94971.34;5053174;28;20209;-59
2021/03/17 22:47:22;;;;;;;19.50;14.13;;;;;;;2.02;100.00;94975.91;5052610;28;20211;-60
2021/03/17 22:49:50;;;;;;;16.77;13.10;;;;;;;1.95;100.00;94977.94;5052830;28;20288;-59
2021/03/17 22:52:17;;;;;;;18.87;14.30;;;;;;;2.01;100.00;94969.25;5052819;28;20227;-59
2021/03/17 22:54:44;;;;;;;17.97;13.77;;;;;;;2.04;100.00;94977.19;5053065;28;20198;-59
2021/03/17 22:57:12;;;;;;;19.13;13.77;;;;;;;2.04;100.00;94976.44;5053011;28;20284;-60
2021/03/17 22:59:39;;;;;;;18.83;13.87;;;;;;;1.96;100.00;94984.59;5052602;28;20199;-60
2021/03/17 23:02:06;;;;;;;27.37;19.07;;;;;;;2.05;100.00;94977.97;5052696;28;20193;-60
2021/03/17 23:04:34;;;;;;;18.90;13.47;;;;;;;2.02;100.00;94983.59;5052809;28;20668;-60
2021/03/17 23:07:02;;;;;;;18.30;13.70;;;;;;;2.04;100.00;94986.69;5052760;28;20199;-60
2021/03/17 23:09:34;;;;;;;19.03;13.30;;;;;;;2.09;100.00;94990.03;5052440;28;20236;-59
2021/03/17 23:12:01;;;;;;;17.47;13.20;;;;;;;2.17;100.00;94981.84;5052593;28;20200;-60
2021/03/17 23:14:30;;;;;;;17.13;13.63;;;;;;;2.05;100.00;94983.09;5052545;28;20282;-59
2021/03/17 23:17:01;;;;;;;17.23;13.70;;;;;;;2.14;100.00;94989.28;5052454;28;20676;-59
2021/03/17 23:19:29;;;;;;;17.60;13.47;;;;;;;2.07;100.00;94986.19;5052464;28;20252;-60
2021/03/17 23:21:57;;;;;;;16.63;12.77;;;;;;;2.14;100.00;94984.16;5052741;28;20268;-59
2021/03/17 23:24:28;;;;;;;15.07;11.37;;;;;;;2.11;100.00;94985.44;5052376;28;20225;-59
2021/03/17 23:27:03;;;;;;;14.50;11.47;;;;;;;2.16;100.00;94990.56;5052373;28;20200;-59
2021/03/17 23:29:32;;;;;;;16.30;12.53;;;;;;;2.23;100.00;94987.78;5052142;28;20319;-59
2021/03/17 23:32:00;;;;;;;14.03;11.13;;;;;;;2.22;100.00;94988.00;5052101;28;20272;-59
2021/03/17 23:34:30;;;;;;;15.87;12.20;;;;;;;2.28;100.00;94987.78;5052294;28;20211;-60
2021/03/17 23:36:58;;;;;;;14.77;11.70;;;;;;;2.16;100.00;94992.34;5052093;28;20224;-60
2021/03/17 23:39:29;;;;;;;13.90;10.60;;;;;;;2.19;100.00;94983.41;5052001;28;20261;-60
2021/03/17 23:41:58;;;;;;;14.57;11.20;;;;;;;2.17;100.00;94979.28;5052033;28;20234;-59
2021/03/17 23:44:25;;;;;;;15.67;11.43;;;;;;;2.16;100.00;94984.66;5051877;28;20210;-59
2021/03/17 23:46:54;;;;;;;13.83;10.77;;;;;;;2.19;100.00;94989.31;5052047;28;20274;-59
2021/03/17 23:49:23;;;;;;;16.63;11.83;;;;;;;2.19;100.00;94994.44;5051481;28;20268;-59
2021/03/17 23:51:54;;;;;;;12.73;9.93;;;;;;;2.19;100.00;94994.44;5051922;28;20223;-60
2021/03/17 23:54:21;;;;;;;15.23;10.50;;;;;;;2.16;100.00;94988.00;5051873;28;20200;-58
2021/03/17 23:56:48;;;;;;;14.53;10.17;;;;;;;2.24;100.00;94991.88;5051602;28;20262;-59
2021/03/17 23:59:16;;;;;;;13.40;10.13;;;;;;;2.26;100.00;94986.47;5051959;28;20654;-59
